CPX617 Details

Departure: Watertown International Airport (KART)
Arrival: Washington Dulles International Airport (KIAD)
Route: PAGER V29 SYR V35 PSB V501 HGR V438 LUCKE


Current Weather Information
KART 230756Z AUTO 20005KT 10SM BKN085 11/08 A2980 RMK AO2 SLP090 T01060083
KIAD 230752Z 00000KT 10SM R01R/5500VP6000FT MIFG CLR 07/07 A2991 RMK AO2 SLP129 T00720067 $